sensor_id;sensor_type;location;lat;lon;timestamp;P1;durP1;ratioP1;P2;durP2;ratioP2
13672;SDS011;6909;52.202;9.876;2023-04-24T00:00:03;0.30;;;0.30;;
13672;SDS011;6909;52.202;9.876;2023-04-24T00:02:31;0.30;;;0.30;;
13672;SDS011;6909;52.202;9.876;2023-04-24T00:04:59;0.40;;;0.30;;
13672;SDS011;6909;52.202;9.876;2023-04-24T00:07:27;0.40;;;0.40;;
13672;SDS011;6909;52.202;9.876;2023-04-24T00:09:54;0.47;;;0.47;;
13672;SDS011;6909;52.202;9.876;2023-04-24T00:12:21;0.30;;;0.30;;
13672;SDS011;6909;52.202;9.876;2023-04-24T00:14:49;0.30;;;0.30;;
13672;SDS011;6909;52.202;9.876;2023-04-24T00:17:15;0.20;;;0.20;;
13672;SDS011;6909;52.202;9.876;2023-04-24T00:19:44;0.57;;;0.23;;
13672;SDS011;6909;52.202;9.876;2023-04-24T00:22:11;0.20;;;0.20;;
13672;SDS011;6909;52.202;9.876;2023-04-24T00:24:39;0.30;;;0.30;;
13672;SDS011;6909;52.202;9.876;2023-04-24T00:27:06;0.30;;;0.30;;
13672;SDS011;6909;52.202;9.876;2023-04-24T00:29:32;0.47;;;0.47;;
13672;SDS011;6909;52.202;9.876;2023-04-24T00:32:01;0.40;;;0.40;;
13672;SDS011;6909;52.202;9.876;2023-04-24T00:34:27;0.30;;;0.30;;
13672;SDS011;6909;52.202;9.876;2023-04-24T00:36:54;0.20;;;0.20;;
13672;SDS011;6909;52.202;9.876;2023-04-24T00:39:20;0.40;;;0.40;;
13672;SDS011;6909;52.202;9.876;2023-04-24T00:41:47;0.67;;;0.60;;
13672;SDS011;6909;52.202;9.876;2023-04-24T00:44:15;0.30;;;0.30;;
13672;SDS011;6909;52.202;9.876;2023-04-24T00:46:42;0.40;;;0.40;;
13672;SDS011;6909;52.202;9.876;2023-04-24T00:49:10;0.60;;;0.33;;
13672;SDS011;6909;52.202;9.876;2023-04-24T00:51:38;0.40;;;0.40;;
13672;SDS011;6909;52.202;9.876;2023-04-24T00:54:05;0.30;;;0.30;;
13672;SDS011;6909;52.202;9.876;2023-04-24T00:56:32;0.40;;;0.40;;
13672;SDS011;6909;52.202;9.876;2023-04-24T00:58:59;0.33;;;0.33;;
13672;SDS011;6909;52.202;9.876;2023-04-24T01:01:25;0.47;;;0.40;;
13672;SDS011;6909;52.202;9.876;2023-04-24T01:03:52;0.60;;;0.60;;
13672;SDS011;6909;52.202;9.876;2023-04-24T01:06:21;0.20;;;0.20;;
13672;SDS011;6909;52.202;9.876;2023-04-24T01:08:48;0.20;;;0.20;;
13672;SDS011;6909;52.202;9.876;2023-04-24T01:11:16;0.23;;;0.23;;
13672;SDS011;6909;52.202;9.876;2023-04-24T01:13:43;0.27;;;0.27;;
13672;SDS011;6909;52.202;9.876;2023-04-24T01:16:11;0.30;;;0.30;;
13672;SDS011;6909;52.202;9.876;2023-04-24T01:18:38;0.37;;;0.20;;
13672;SDS011;6909;52.202;9.876;2023-04-24T01:21:06;0.67;;;0.47;;
13672;SDS011;6909;52.202;9.876;2023-04-24T01:23:36;0.10;;;0.10;;
13672;SDS011;6909;52.202;9.876;2023-04-24T01:26:03;2.17;;;0.60;;
13672;SDS011;6909;52.202;9.876;2023-04-24T01:28:29;0.57;;;0.30;;
13672;SDS011;6909;52.202;9.876;2023-04-24T01:30:56;0.30;;;0.30;;
13672;SDS011;6909;52.202;9.876;2023-04-24T01:33:23;0.20;;;0.20;;
13672;SDS011;6909;52.202;9.876;2023-04-24T01:35:50;0.67;;;0.43;;
13672;SDS011;6909;52.202;9.876;2023-04-24T01:38:17;0.80;;;0.47;;
13672;SDS011;6909;52.202;9.876;2023-04-24T01:40:45;0.53;;;0.47;;
13672;SDS011;6909;52.202;9.876;2023-04-24T01:43:12;0.20;;;0.20;;
13672;SDS011;6909;52.202;9.876;2023-04-24T01:45:39;0.40;;;0.40;;
13672;SDS011;6909;52.202;9.876;2023-04-24T01:48:06;0.50;;;0.30;;
13672;SDS011;6909;52.202;9.876;2023-04-24T01:50:32;0.57;;;0.30;;
13672;SDS011;6909;52.202;9.876;2023-04-24T01:52:59;0.47;;;0.40;;
13672;SDS011;6909;52.202;9.876;2023-04-24T01:55:25;0.23;;;0.23;;
13672;SDS011;6909;52.202;9.876;2023-04-24T01:57:55;0.30;;;0.30;;
13672;SDS011;6909;52.202;9.876;2023-04-24T02:00:22;0.30;;;0.30;;
13672;SDS011;6909;52.202;9.876;2023-04-24T02:02:49;0.30;;;0.30;;
13672;SDS011;6909;52.202;9.876;2023-04-24T02:05:16;0.20;;;0.20;;
13672;SDS011;6909;52.202;9.876;2023-04-24T02:07:42;0.40;;;0.40;;
13672;SDS011;6909;52.202;9.876;2023-04-24T02:10:09;0.20;;;0.20;;
13672;SDS011;6909;52.202;9.876;2023-04-24T02:12:36;0.67;;;0.50;;
13672;SDS011;6909;52.202;9.876;2023-04-24T02:15:05;0.20;;;0.20;;
13672;SDS011;6909;52.202;9.876;2023-04-24T02:17:32;0.20;;;0.20;;
13672;SDS011;6909;52.202;9.876;2023-04-24T02:19:59;0.40;;;0.40;;
13672;SDS011;6909;52.202;9.876;2023-04-24T02:22:26;0.50;;;0.50;;
13672;SDS011;6909;52.202;9.876;2023-04-24T02:24:52;4.07;;;0.40;;
13672;SDS011;6909;52.202;9.876;2023-04-24T02:27:19;0.57;;;0.53;;
13672;SDS011;6909;52.202;9.876;2023-04-24T02:29:45;0.10;;;0.10;;
13672;SDS011;6909;52.202;9.876;2023-04-24T02:32:13;0.20;;;0.20;;
13672;SDS011;6909;52.202;9.876;2023-04-24T02:34:41;0.30;;;0.30;;
13672;SDS011;6909;52.202;9.876;2023-04-24T02:37:07;0.50;;;0.20;;
13672;SDS011;6909;52.202;9.876;2023-04-24T02:39:34;0.93;;;0.20;;
13672;SDS011;6909;52.202;9.876;2023-04-24T02:42:01;0.30;;;0.30;;
13672;SDS011;6909;52.202;9.876;2023-04-24T02:44:27;0.20;;;0.20;;
13672;SDS011;6909;52.202;9.876;2023-04-24T02:46:54;0.20;;;0.20;;
13672;SDS011;6909;52.202;9.876;2023-04-24T02:49:22;0.30;;;0.30;;
13672;SDS011;6909;52.202;9.876;2023-04-24T02:51:49;0.10;;;0.10;;
13672;SDS011;6909;52.202;9.876;2023-04-24T02:54:15;0.30;;;0.30;;
13672;SDS011;6909;52.202;9.876;2023-04-24T02:56:42;0.20;;;0.20;;
13672;SDS011;6909;52.202;9.876;2023-04-24T02:59:08;0.17;;;0.17;;
13672;SDS011;6909;52.202;9.876;2023-04-24T03:01:35;0.40;;;0.20;;
13672;SDS011;6909;52.202;9.876;2023-04-24T03:04:02;0.10;;;0.10;;
13672;SDS011;6909;52.202;9.876;2023-04-24T03:06:30;0.30;;;0.20;;
13672;SDS011;6909;52.202;9.876;2023-04-24T03:08:57;0.10;;;0.10;;
13672;SDS011;6909;52.202;9.876;2023-04-24T03:11:24;0.20;;;0.20;;
13672;SDS011;6909;52.202;9.876;2023-04-24T03:13:51;0.40;;;0.30;;
13672;SDS011;6909;52.202;9.876;2023-04-24T03:16:17;0.10;;;0.10;;
13672;SDS011;6909;52.202;9.876;2023-04-24T03:18:44;0.10;;;0.10;;
13672;SDS011;6909;52.202;9.876;2023-04-24T03:21:11;0.23;;;0.23;;
13672;SDS011;6909;52.202;9.876;2023-04-24T03:23:39;0.67;;;0.20;;
13672;SDS011;6909;52.202;9.876;2023-04-24T03:26:06;0.10;;;0.10;;
13672;SDS011;6909;52.202;9.876;2023-04-24T03:28:32;0.60;;;0.20;;
13672;SDS011;6909;52.202;9.876;2023-04-24T03:30:59;0.63;;;0.23;;
13672;SDS011;6909;52.202;9.876;2023-04-24T03:33:25;0.77;;;0.50;;
13672;SDS011;6909;52.202;9.876;2023-04-24T03:35:52;0.20;;;0.20;;
13672;SDS011;6909;52.202;9.876;2023-04-24T03:38:19;0.23;;;0.20;;
13672;SDS011;6909;52.202;9.876;2023-04-24T03:40:46;0.30;;;0.30;;
13672;SDS011;6909;52.202;9.876;2023-04-24T03:43:13;0.10;;;0.10;;
13672;SDS011;6909;52.202;9.876;2023-04-24T03:45:40;0.20;;;0.20;;
13672;SDS011;6909;52.202;9.876;2023-04-24T03:48:06;0.20;;;0.20;;
13672;SDS011;6909;52.202;9.876;2023-04-24T03:50:33;0.10;;;0.10;;
13672;SDS011;6909;52.202;9.876;2023-04-24T03:53:00;0.20;;;0.20;;
13672;SDS011;6909;52.202;9.876;2023-04-24T03:55:26;0.13;;;0.13;;
13672;SDS011;6909;52.202;9.876;2023-04-24T03:57:54;0.10;;;0.10;;
13672;SDS011;6909;52.202;9.876;2023-04-24T04:00:21;0.10;;;0.10;;
13672;SDS011;6909;52.202;9.876;2023-04-24T04:02:48;0.10;;;0.10;;
13672;SDS011;6909;52.202;9.876;2023-04-24T04:05:14;0.17;;;0.10;;
13672;SDS011;6909;52.202;9.876;2023-04-24T04:07:41;0.10;;;0.10;;
13672;SDS011;6909;52.202;9.876;2023-04-24T04:10:08;0.30;;;0.27;;
13672;SDS011;6909;52.202;9.876;2023-04-24T04:12:34;0.10;;;0.10;;
13672;SDS011;6909;52.202;9.876;2023-04-24T04:15:03;0.10;;;0.10;;
13672;SDS011;6909;52.202;9.876;2023-04-24T04:17:30;0.53;;;0.30;;
13672;SDS011;6909;52.202;9.876;2023-04-24T04:19:57;0.07;;;0.07;;
13672;SDS011;6909;52.202;9.876;2023-04-24T04:22:24;0.27;;;0.27;;
13672;SDS011;6909;52.202;9.876;2023-04-24T04:24:51;0.37;;;0.20;;
13672;SDS011;6909;52.202;9.876;2023-04-24T04:27:17;0.30;;;0.30;;
13672;SDS011;6909;52.202;9.876;2023-04-24T04:29:46;0.10;;;0.10;;
13672;SDS011;6909;52.202;9.876;2023-04-24T04:32:14;0.30;;;0.30;;
13672;SDS011;6909;52.202;9.876;2023-04-24T04:34:41;0.30;;;0.23;;
13672;SDS011;6909;52.202;9.876;2023-04-24T04:37:10;0.47;;;0.30;;
13672;SDS011;6909;52.202;9.876;2023-04-24T04:39:37;0.00;;;0.00;;
13672;SDS011;6909;52.202;9.876;2023-04-24T04:42:04;0.20;;;0.20;;
13672;SDS011;6909;52.202;9.876;2023-04-24T04:44:31;0.10;;;0.10;;
13672;SDS011;6909;52.202;9.876;2023-04-24T04:47:00;0.10;;;0.10;;
13672;SDS011;6909;52.202;9.876;2023-04-24T04:49:30;0.20;;;0.20;;
13672;SDS011;6909;52.202;9.876;2023-04-24T04:51:56;0.10;;;0.10;;
13672;SDS011;6909;52.202;9.876;2023-04-24T04:54:23;0.30;;;0.30;;
13672;SDS011;6909;52.202;9.876;2023-04-24T04:56:50;0.17;;;0.17;;
13672;SDS011;6909;52.202;9.876;2023-04-24T04:59:17;1.90;;;0.50;;
13672;SDS011;6909;52.202;9.876;2023-04-24T05:01:43;0.33;;;0.20;;
13672;SDS011;6909;52.202;9.876;2023-04-24T05:04:10;0.47;;;0.30;;
13672;SDS011;6909;52.202;9.876;2023-04-24T05:06:38;0.20;;;0.20;;
13672;SDS011;6909;52.202;9.876;2023-04-24T05:09:04;0.27;;;0.27;;
13672;SDS011;6909;52.202;9.876;2023-04-24T05:11:32;0.20;;;0.20;;
13672;SDS011;6909;52.202;9.876;2023-04-24T05:13:59;0.20;;;0.20;;
13672;SDS011;6909;52.202;9.876;2023-04-24T05:16:26;0.10;;;0.10;;
13672;SDS011;6909;52.202;9.876;2023-04-24T05:18:52;0.30;;;0.30;;
13672;SDS011;6909;52.202;9.876;2023-04-24T05:21:19;0.30;;;0.20;;
13672;SDS011;6909;52.202;9.876;2023-04-24T05:23:47;1.30;;;0.20;;
13672;SDS011;6909;52.202;9.876;2023-04-24T05:26:14;0.20;;;0.20;;
13672;SDS011;6909;52.202;9.876;2023-04-24T05:28:40;0.20;;;0.20;;
13672;SDS011;6909;52.202;9.876;2023-04-24T05:31:07;0.23;;;0.20;;
13672;SDS011;6909;52.202;9.876;2023-04-24T05:33:33;0.53;;;0.20;;
13672;SDS011;6909;52.202;9.876;2023-04-24T05:36:00;0.20;;;0.20;;
13672;SDS011;6909;52.202;9.876;2023-04-24T05:38:27;0.10;;;0.10;;
13672;SDS011;6909;52.202;9.876;2023-04-24T05:40:55;0.10;;;0.10;;
13672;SDS011;6909;52.202;9.876;2023-04-24T05:43:21;0.30;;;0.30;;
13672;SDS011;6909;52.202;9.876;2023-04-24T05:45:48;3.37;;;0.53;;
13672;SDS011;6909;52.202;9.876;2023-04-24T05:48:14;0.10;;;0.10;;
13672;SDS011;6909;52.202;9.876;2023-04-24T05:50:41;2.03;;;0.30;;
13672;SDS011;6909;52.202;9.876;2023-04-24T05:53:08;0.40;;;0.30;;
13672;SDS011;6909;52.202;9.876;2023-04-24T05:55:35;0.47;;;0.10;;
13672;SDS011;6909;52.202;9.876;2023-04-24T05:58:03;0.20;;;0.20;;
13672;SDS011;6909;52.202;9.876;2023-04-24T06:00:30;0.20;;;0.20;;
13672;SDS011;6909;52.202;9.876;2023-04-24T06:02:57;0.20;;;0.20;;
13672;SDS011;6909;52.202;9.876;2023-04-24T06:05:24;3.63;;;0.30;;
13672;SDS011;6909;52.202;9.876;2023-04-24T06:07:51;0.23;;;0.23;;
13672;SDS011;6909;52.202;9.876;2023-04-24T06:10:17;0.33;;;0.17;;
13672;SDS011;6909;52.202;9.876;2023-04-24T06:12:44;0.40;;;0.30;;
13672;SDS011;6909;52.202;9.876;2023-04-24T06:15:12;0.20;;;0.20;;
13672;SDS011;6909;52.202;9.876;2023-04-24T06:17:39;0.20;;;0.20;;
13672;SDS011;6909;52.202;9.876;2023-04-24T06:20:06;0.20;;;0.20;;
13672;SDS011;6909;52.202;9.876;2023-04-24T06:22:33;0.03;;;0.03;;
13672;SDS011;6909;52.202;9.876;2023-04-24T06:25:00;0.20;;;0.20;;
13672;SDS011;6909;52.202;9.876;2023-04-24T06:27:27;0.77;;;0.30;;
13672;SDS011;6909;52.202;9.876;2023-04-24T06:29:53;1.07;;;0.30;;
13672;SDS011;6909;52.202;9.876;2023-04-24T06:32:22;0.20;;;0.20;;
13672;SDS011;6909;52.202;9.876;2023-04-24T06:34:49;1.03;;;0.47;;
13672;SDS011;6909;52.202;9.876;2023-04-24T06:37:17;0.37;;;0.30;;
13672;SDS011;6909;52.202;9.876;2023-04-24T06:39:44;0.20;;;0.20;;
13672;SDS011;6909;52.202;9.876;2023-04-24T06:42:11;0.40;;;0.40;;
13672;SDS011;6909;52.202;9.876;2023-04-24T06:44:37;0.30;;;0.30;;
13672;SDS011;6909;52.202;9.876;2023-04-24T06:47:06;0.30;;;0.30;;
13672;SDS011;6909;52.202;9.876;2023-04-24T06:49:35;0.43;;;0.40;;
13672;SDS011;6909;52.202;9.876;2023-04-24T06:52:01;0.30;;;0.30;;
13672;SDS011;6909;52.202;9.876;2023-04-24T06:54:28;0.50;;;0.50;;
13672;SDS011;6909;52.202;9.876;2023-04-24T06:56:56;0.33;;;0.33;;
13672;SDS011;6909;52.202;9.876;2023-04-24T06:59:23;0.37;;;0.30;;
13672;SDS011;6909;52.202;9.876;2023-04-24T07:01:50;1.87;;;0.63;;
13672;SDS011;6909;52.202;9.876;2023-04-24T07:04:16;0.50;;;0.50;;
13672;SDS011;6909;52.202;9.876;2023-04-24T07:06:45;0.43;;;0.43;;
13672;SDS011;6909;52.202;9.876;2023-04-24T07:09:12;0.53;;;0.50;;
13672;SDS011;6909;52.202;9.876;2023-04-24T07:11:40;0.70;;;0.70;;
13672;SDS011;6909;52.202;9.876;2023-04-24T07:14:07;1.00;;;0.80;;
13672;SDS011;6909;52.202;9.876;2023-04-24T07:16:35;0.90;;;0.90;;
13672;SDS011;6909;52.202;9.876;2023-04-24T07:19:02;1.23;;;0.90;;
13672;SDS011;6909;52.202;9.876;2023-04-24T07:21:28;0.83;;;0.77;;
13672;SDS011;6909;52.202;9.876;2023-04-24T07:23:57;1.10;;;0.90;;
13672;SDS011;6909;52.202;9.876;2023-04-24T07:26:24;0.80;;;0.67;;
13672;SDS011;6909;52.202;9.876;2023-04-24T07:28:51;1.43;;;1.33;;
13672;SDS011;6909;52.202;9.876;2023-04-24T07:31:18;1.40;;;1.30;;
13672;SDS011;6909;52.202;9.876;2023-04-24T07:33:44;1.70;;;1.47;;
13672;SDS011;6909;52.202;9.876;2023-04-24T07:36:11;1.50;;;1.30;;
13672;SDS011;6909;52.202;9.876;2023-04-24T07:38:41;2.60;;;1.73;;
13672;SDS011;6909;52.202;9.876;2023-04-24T07:41:10;1.27;;;1.17;;
13672;SDS011;6909;52.202;9.876;2023-04-24T07:43:36;2.50;;;1.60;;
13672;SDS011;6909;52.202;9.876;2023-04-24T07:46:03;6.00;;;2.33;;
13672;SDS011;6909;52.202;9.876;2023-04-24T07:48:30;1.70;;;1.60;;
13672;SDS011;6909;52.202;9.876;2023-04-24T07:50:56;1.83;;;1.67;;
13672;SDS011;6909;52.202;9.876;2023-04-24T07:53:23;1.83;;;1.65;;
13672;SDS011;6909;52.202;9.876;2023-04-24T07:55:50;2.15;;;1.95;;
13672;SDS011;6909;52.202;9.876;2023-04-24T07:58:18;1.75;;;1.65;;
13672;SDS011;6909;52.202;9.876;2023-04-24T08:00:44;3.05;;;1.98;;
13672;SDS011;6909;52.202;9.876;2023-04-24T08:03:11;2.33;;;1.98;;
13672;SDS011;6909;52.202;9.876;2023-04-24T08:05:38;2.00;;;1.80;;
13672;SDS011;6909;52.202;9.876;2023-04-24T08:08:05;3.38;;;2.25;;
13672;SDS011;6909;52.202;9.876;2023-04-24T08:10:31;1.70;;;1.60;;
13672;SDS011;6909;52.202;9.876;2023-04-24T08:12:58;2.25;;;2.05;;
13672;SDS011;6909;52.202;9.876;2023-04-24T08:15:26;4.30;;;2.03;;
13672;SDS011;6909;52.202;9.876;2023-04-24T08:17:53;2.33;;;2.05;;
13672;SDS011;6909;52.202;9.876;2023-04-24T08:20:20;2.83;;;1.98;;
13672;SDS011;6909;52.202;9.876;2023-04-24T08:22:46;2.58;;;1.75;;
13672;SDS011;6909;52.202;9.876;2023-04-24T08:25:13;1.92;;;1.65;;
13672;SDS011;6909;52.202;9.876;2023-04-24T08:27:40;2.22;;;1.75;;
13672;SDS011;6909;52.202;9.876;2023-04-24T08:30:07;2.20;;;1.83;;
13672;SDS011;6909;52.202;9.876;2023-04-24T08:32:36;2.40;;;1.80;;
13672;SDS011;6909;52.202;9.876;2023-04-24T08:35:03;2.83;;;2.00;;
13672;SDS011;6909;52.202;9.876;2023-04-24T08:37:30;2.25;;;2.05;;
13672;SDS011;6909;52.202;9.876;2023-04-24T08:39:57;1.80;;;1.50;;
13672;SDS011;6909;52.202;9.876;2023-04-24T08:42:24;3.40;;;1.80;;
13672;SDS011;6909;52.202;9.876;2023-04-24T08:44:52;2.27;;;1.50;;
13672;SDS011;6909;52.202;9.876;2023-04-24T08:47:18;2.38;;;1.75;;
13672;SDS011;6909;52.202;9.876;2023-04-24T08:49:47;2.60;;;2.08;;
13672;SDS011;6909;52.202;9.876;2023-04-24T08:52:15;2.13;;;1.93;;
13672;SDS011;6909;52.202;9.876;2023-04-24T08:54:45;1.40;;;1.30;;
13672;SDS011;6909;52.202;9.876;2023-04-24T08:57:12;1.13;;;1.03;;
13672;SDS011;6909;52.202;9.876;2023-04-24T08:59:40;2.30;;;1.60;;
13672;SDS011;6909;52.202;9.876;2023-04-24T09:02:09;2.60;;;1.50;;
13672;SDS011;6909;52.202;9.876;2023-04-24T09:04:37;2.00;;;1.47;;
13672;SDS011;6909;52.202;9.876;2023-04-24T09:07:05;1.53;;;1.20;;
13672;SDS011;6909;52.202;9.876;2023-04-24T09:09:33;2.13;;;1.70;;
13672;SDS011;6909;52.202;9.876;2023-04-24T09:12:01;1.70;;;1.57;;
13672;SDS011;6909;52.202;9.876;2023-04-24T09:14:28;1.73;;;1.20;;
13672;SDS011;6909;52.202;9.876;2023-04-24T09:16:56;1.37;;;1.23;;
13672;SDS011;6909;52.202;9.876;2023-04-24T09:19:23;1.33;;;1.23;;
13672;SDS011;6909;52.202;9.876;2023-04-24T09:21:50;1.90;;;1.30;;
13672;SDS011;6909;52.202;9.876;2023-04-24T09:24:20;2.07;;;1.23;;
13672;SDS011;6909;52.202;9.876;2023-04-24T09:26:48;1.90;;;1.30;;
13672;SDS011;6909;52.202;9.876;2023-04-24T09:29:22;1.47;;;1.37;;
13672;SDS011;6909;52.202;9.876;2023-04-24T09:31:48;1.80;;;1.20;;
13672;SDS011;6909;52.202;9.876;2023-04-24T09:34:19;1.60;;;1.50;;
13672;SDS011;6909;52.202;9.876;2023-04-24T09:36:48;3.03;;;1.17;;
13672;SDS011;6909;52.202;9.876;2023-04-24T09:39:15;2.37;;;1.20;;
13672;SDS011;6909;52.202;9.876;2023-04-24T09:41:51;2.20;;;1.70;;
13672;SDS011;6909;52.202;9.876;2023-04-24T09:44:21;1.33;;;1.23;;
13672;SDS011;6909;52.202;9.876;2023-04-24T09:46:49;1.83;;;1.10;;
13672;SDS011;6909;52.202;9.876;2023-04-24T09:49:21;1.10;;;0.77;;
13672;SDS011;6909;52.202;9.876;2023-04-24T09:51:49;1.57;;;1.20;;
13672;SDS011;6909;52.202;9.876;2023-04-24T09:54:16;0.90;;;0.90;;
13672;SDS011;6909;52.202;9.876;2023-04-24T09:56:45;1.40;;;0.97;;
13672;SDS011;6909;52.202;9.876;2023-04-24T09:59:14;1.20;;;1.00;;
13672;SDS011;6909;52.202;9.876;2023-04-24T10:01:42;1.83;;;0.87;;
13672;SDS011;6909;52.202;9.876;2023-04-24T10:04:16;1.03;;;0.70;;
13672;SDS011;6909;52.202;9.876;2023-04-24T10:06:44;2.93;;;1.00;;
13672;SDS011;6909;52.202;9.876;2023-04-24T10:09:12;1.37;;;1.10;;
13672;SDS011;6909;52.202;9.876;2023-04-24T10:11:40;1.37;;;0.87;;
13672;SDS011;6909;52.202;9.876;2023-04-24T10:14:10;0.70;;;0.70;;
13672;SDS011;6909;52.202;9.876;2023-04-24T10:16:38;0.97;;;0.97;;
13672;SDS011;6909;52.202;9.876;2023-04-24T10:19:06;1.10;;;0.70;;
13672;SDS011;6909;52.202;9.876;2023-04-24T10:21:33;0.97;;;0.80;;
13672;SDS011;6909;52.202;9.876;2023-04-24T10:24:00;0.80;;;0.80;;
13672;SDS011;6909;52.202;9.876;2023-04-24T10:26:28;3.50;;;1.10;;
13672;SDS011;6909;52.202;9.876;2023-04-24T10:28:56;1.17;;;1.00;;
13672;SDS011;6909;52.202;9.876;2023-04-24T10:31:25;0.80;;;0.80;;
13672;SDS011;6909;52.202;9.876;2023-04-24T10:33:53;1.23;;;0.83;;
13672;SDS011;6909;52.202;9.876;2023-04-24T10:36:21;1.13;;;1.00;;
13672;SDS011;6909;52.202;9.876;2023-04-24T10:38:51;1.33;;;0.80;;
13672;SDS011;6909;52.202;9.876;2023-04-24T10:41:24;0.80;;;0.80;;
13672;SDS011;6909;52.202;9.876;2023-04-24T10:44:03;0.87;;;0.87;;
13672;SDS011;6909;52.202;9.876;2023-04-24T10:46:32;1.50;;;1.10;;
13672;SDS011;6909;52.202;9.876;2023-04-24T10:48:58;1.00;;;0.90;;
13672;SDS011;6909;52.202;9.876;2023-04-24T10:51:42;1.77;;;1.20;;
13672;SDS011;6909;52.202;9.876;2023-04-24T10:54:25;0.77;;;0.70;;
13672;SDS011;6909;52.202;9.876;2023-04-24T10:56:52;1.17;;;1.00;;
13672;SDS011;6909;52.202;9.876;2023-04-24T10:59:39;1.80;;;1.10;;
13672;SDS011;6909;52.202;9.876;2023-04-24T11:02:08;1.07;;;0.73;;
13672;SDS011;6909;52.202;9.876;2023-04-24T11:04:34;1.20;;;1.10;;
13672;SDS011;6909;52.202;9.876;2023-04-24T11:07:02;1.00;;;0.90;;
13672;SDS011;6909;52.202;9.876;2023-04-24T11:09:29;0.87;;;0.77;;
13672;SDS011;6909;52.202;9.876;2023-04-24T11:12:03;0.60;;;0.60;;
13672;SDS011;6909;52.202;9.876;2023-04-24T11:17:36;0.60;;;0.60;;
13672;SDS011;6909;52.202;9.876;2023-04-24T11:20:06;1.80;;;0.60;;
13672;SDS011;6909;52.202;9.876;2023-04-24T11:22:34;0.53;;;0.40;;
13672;SDS011;6909;52.202;9.876;2023-04-24T11:25:02;0.43;;;0.40;;
13672;SDS011;6909;52.202;9.876;2023-04-24T11:27:33;0.50;;;0.50;;
13672;SDS011;6909;52.202;9.876;2023-04-24T11:30:06;0.40;;;0.40;;
13672;SDS011;6909;52.202;9.876;2023-04-24T11:32:35;0.60;;;0.57;;
13672;SDS011;6909;52.202;9.876;2023-04-24T11:35:04;0.40;;;0.40;;
13672;SDS011;6909;52.202;9.876;2023-04-24T11:37:35;0.60;;;0.50;;
13672;SDS011;6909;52.202;9.876;2023-04-24T11:40:03;3.20;;;0.60;;
13672;SDS011;6909;52.202;9.876;2023-04-24T11:42:34;0.83;;;0.70;;
13672;SDS011;6909;52.202;9.876;2023-04-24T11:45:02;0.70;;;0.70;;
13672;SDS011;6909;52.202;9.876;2023-04-24T11:47:33;3.97;;;0.60;;
13672;SDS011;6909;52.202;9.876;2023-04-24T11:50:02;0.50;;;0.50;;
13672;SDS011;6909;52.202;9.876;2023-04-24T11:52:31;1.03;;;0.63;;
13672;SDS011;6909;52.202;9.876;2023-04-24T11:54:59;2.50;;;0.63;;
13672;SDS011;6909;52.202;9.876;2023-04-24T11:57:26;0.40;;;0.40;;
13672;SDS011;6909;52.202;9.876;2023-04-24T11:59:54;0.70;;;0.70;;
13672;SDS011;6909;52.202;9.876;2023-04-24T12:02:21;0.60;;;0.60;;
13672;SDS011;6909;52.202;9.876;2023-04-24T12:04:50;0.40;;;0.40;;
13672;SDS011;6909;52.202;9.876;2023-04-24T12:07:17;0.67;;;0.60;;
13672;SDS011;6909;52.202;9.876;2023-04-24T12:09:44;1.47;;;0.77;;
13672;SDS011;6909;52.202;9.876;2023-04-24T12:12:12;2.93;;;0.70;;
13672;SDS011;6909;52.202;9.876;2023-04-24T12:14:43;0.77;;;0.73;;
13672;SDS011;6909;52.202;9.876;2023-04-24T12:17:14;0.50;;;0.50;;
13672;SDS011;6909;52.202;9.876;2023-04-24T12:19:44;0.73;;;0.73;;
13672;SDS011;6909;52.202;9.876;2023-04-24T12:22:14;0.33;;;0.33;;
13672;SDS011;6909;52.202;9.876;2023-04-24T12:25:00;0.30;;;0.30;;
13672;SDS011;6909;52.202;9.876;2023-04-24T12:27:29;0.20;;;0.20;;
13672;SDS011;6909;52.202;9.876;2023-04-24T12:29:58;0.63;;;0.40;;
13672;SDS011;6909;52.202;9.876;2023-04-24T12:32:25;0.43;;;0.30;;
13672;SDS011;6909;52.202;9.876;2023-04-24T12:34:53;0.20;;;0.20;;
13672;SDS011;6909;52.202;9.876;2023-04-24T12:37:22;0.50;;;0.50;;
13672;SDS011;6909;52.202;9.876;2023-04-24T12:40:00;0.37;;;0.37;;
13672;SDS011;6909;52.202;9.876;2023-04-24T12:42:27;0.40;;;0.40;;
13672;SDS011;6909;52.202;9.876;2023-04-24T12:44:58;0.50;;;0.50;;
13672;SDS011;6909;52.202;9.876;2023-04-24T12:47:26;0.57;;;0.30;;
13672;SDS011;6909;52.202;9.876;2023-04-24T12:49:54;0.53;;;0.50;;
13672;SDS011;6909;52.202;9.876;2023-04-24T12:52:22;0.50;;;0.50;;
13672;SDS011;6909;52.202;9.876;2023-04-24T12:54:51;0.50;;;0.50;;
13672;SDS011;6909;52.202;9.876;2023-04-24T12:57:21;0.50;;;0.50;;
13672;SDS011;6909;52.202;9.876;2023-04-24T12:59:49;0.47;;;0.40;;
13672;SDS011;6909;52.202;9.876;2023-04-24T13:02:16;1.97;;;0.50;;
13672;SDS011;6909;52.202;9.876;2023-04-24T13:04:43;0.57;;;0.53;;
13672;SDS011;6909;52.202;9.876;2023-04-24T13:07:11;0.30;;;0.30;;
13672;SDS011;6909;52.202;9.876;2023-04-24T13:09:40;0.30;;;0.30;;
13672;SDS011;6909;52.202;9.876;2023-04-24T13:12:07;0.60;;;0.47;;
13672;SDS011;6909;52.202;9.876;2023-04-24T13:14:34;0.40;;;0.40;;
13672;SDS011;6909;52.202;9.876;2023-04-24T13:17:01;0.40;;;0.30;;
13672;SDS011;6909;52.202;9.876;2023-04-24T13:19:28;0.10;;;0.10;;
13672;SDS011;6909;52.202;9.876;2023-04-24T13:21:55;0.20;;;0.20;;
13672;SDS011;6909;52.202;9.876;2023-04-24T13:24:24;0.10;;;0.10;;
13672;SDS011;6909;52.202;9.876;2023-04-24T13:26:52;0.20;;;0.20;;
13672;SDS011;6909;52.202;9.876;2023-04-24T13:29:19;0.20;;;0.20;;
13672;SDS011;6909;52.202;9.876;2023-04-24T13:31:46;0.10;;;0.10;;
13672;SDS011;6909;52.202;9.876;2023-04-24T13:34:12;0.00;;;0.00;;
13672;SDS011;6909;52.202;9.876;2023-04-24T13:36:39;0.30;;;0.30;;
13672;SDS011;6909;52.202;9.876;2023-04-24T13:39:06;0.30;;;0.30;;
13672;SDS011;6909;52.202;9.876;2023-04-24T13:41:33;0.37;;;0.30;;
13672;SDS011;6909;52.202;9.876;2023-04-24T13:44:01;0.23;;;0.13;;
13672;SDS011;6909;52.202;9.876;2023-04-24T13:46:28;0.30;;;0.30;;
13672;SDS011;6909;52.202;9.876;2023-04-24T13:48:55;1.07;;;0.23;;
13672;SDS011;6909;52.202;9.876;2023-04-24T13:51:22;0.20;;;0.20;;
13672;SDS011;6909;52.202;9.876;2023-04-24T13:53:48;0.10;;;0.10;;
13672;SDS011;6909;52.202;9.876;2023-04-24T13:56:15;0.20;;;0.10;;
13672;SDS011;6909;52.202;9.876;2023-04-24T13:58:42;0.40;;;0.20;;
13672;SDS011;6909;52.202;9.876;2023-04-24T14:01:10;0.07;;;0.07;;
13672;SDS011;6909;52.202;9.876;2023-04-24T14:03:37;0.20;;;0.20;;
13672;SDS011;6909;52.202;9.876;2023-04-24T14:06:04;1.07;;;0.33;;
13672;SDS011;6909;52.202;9.876;2023-04-24T14:08:31;0.10;;;0.10;;
13672;SDS011;6909;52.202;9.876;2023-04-24T14:10:57;0.10;;;0.10;;
13672;SDS011;6909;52.202;9.876;2023-04-24T14:13:24;0.10;;;0.10;;
13672;SDS011;6909;52.202;9.876;2023-04-24T14:15:51;0.37;;;0.10;;
13672;SDS011;6909;52.202;9.876;2023-04-24T14:18:19;0.10;;;0.10;;
13672;SDS011;6909;52.202;9.876;2023-04-24T14:20:46;0.10;;;0.10;;
13672;SDS011;6909;52.202;9.876;2023-04-24T14:23:15;0.10;;;0.10;;
13672;SDS011;6909;52.202;9.876;2023-04-24T14:25:42;0.20;;;0.20;;
13672;SDS011;6909;52.202;9.876;2023-04-24T14:28:09;0.10;;;0.10;;
13672;SDS011;6909;52.202;9.876;2023-04-24T14:30:36;0.30;;;0.30;;
13672;SDS011;6909;52.202;9.876;2023-04-24T14:33:05;0.10;;;0.10;;
13672;SDS011;6909;52.202;9.876;2023-04-24T14:35:33;0.20;;;0.20;;
13672;SDS011;6909;52.202;9.876;2023-04-24T14:38:00;0.10;;;0.10;;
13672;SDS011;6909;52.202;9.876;2023-04-24T14:40:27;0.73;;;0.20;;
13672;SDS011;6909;52.202;9.876;2023-04-24T14:42:54;8.40;;;0.40;;
13672;SDS011;6909;52.202;9.876;2023-04-24T14:45:22;0.27;;;0.27;;
13672;SDS011;6909;52.202;9.876;2023-04-24T14:47:48;0.50;;;0.40;;
13672;SDS011;6909;52.202;9.876;2023-04-24T14:50:15;0.30;;;0.30;;
13672;SDS011;6909;52.202;9.876;2023-04-24T14:52:43;0.10;;;0.10;;
13672;SDS011;6909;52.202;9.876;2023-04-24T14:55:11;0.13;;;0.13;;
13672;SDS011;6909;52.202;9.876;2023-04-24T14:57:38;0.20;;;0.20;;
13672;SDS011;6909;52.202;9.876;2023-04-24T15:00:06;0.30;;;0.30;;
13672;SDS011;6909;52.202;9.876;2023-04-24T15:02:34;1.20;;;0.43;;
13672;SDS011;6909;52.202;9.876;2023-04-24T15:05:02;1.07;;;0.83;;